Time;durP1;ratioP1;P1;durP2;ratioP2;P2;SDS_P1;SDS_P2;PMS_P1;PMS_P2;Temp;Humidity;BMP_temperature;BMP_pressure;BME280_temperature;BME280_humidity;BME280_pressure;Samples;Min_cycle;Max_cycle;Signal;HPM_P1;HPM_P2
2022/10/20 00:07:22;;;;;;;2.55;2.10;;;;;;;22.21;49.65;101171.94;20892636;28;20188;-70
2022/10/20 00:17:24;;;;;;;3.83;2.13;;;;;;;22.19;49.47;101179.13;20883926;28;20048;-70
2022/10/20 00:27:24;;;;;;;3.92;1.70;;;;;;;22.20;49.71;101194.00;20904792;28;20857;-70
2022/10/20 00:37:25;;;;;;;3.25;2.00;;;;;;;22.16;49.76;101193.38;20902502;28;20052;-70
2022/10/20 00:47:37;;;;;;;3.15;2.13;;;;;;;22.15;49.73;101202.22;20908479;28;20044;-70
2022/10/20 00:57:38;;;;;;;;;;;;;;;22.15;49.73;101201.38;20904795;28;20576;-70
2022/10/20 01:07:38;;;;;;;2.35;1.70;;;;;;;22.12;49.48;101202.44;21753184;22;19931;-75
2022/10/20 01:18:10;;;;;;;2.45;2.03;;;;;;;22.11;49.81;101207.84;20987329;28;20051;-79
2022/10/20 01:28:13;;;;;;;1.60;1.50;;;;;;;22.10;49.83;101199.06;20953619;28;20040;-79
2022/10/20 01:38:16;;;;;;;2.25;1.70;;;;;;;22.09;49.93;101205.28;20985027;28;20122;-82
2022/10/20 01:48:21;;;;;;;2.45;1.80;;;;;;;22.05;49.78;101212.56;20993257;28;20032;-79
2022/10/20 01:58:27;;;;;;;2.00;1.80;;;;;;;22.05;49.65;101211.72;20989017;28;20131;-81
2022/10/20 02:08:44;;;;;;;1.77;1.63;;;;;;;22.01;49.52;101205.81;21032885;27;20249;-77
2022/10/20 02:18:46;;;;;;;2.30;1.65;;;;;;;22.00;50.11;101211.22;21068769;27;20379;-79
2022/10/20 02:28:54;;;;;;;1.73;1.50;;;;;;;22.01;50.02;101223.44;21069075;28;20054;-82
2022/10/20 02:38:55;;;;;;;2.58;1.48;;;;;;;21.99;50.07;101220.88;21062990;27;20055;-80
2022/10/20 02:48:55;;;;;;;1.73;1.50;;;;;;;21.98;50.07;101242.94;21063268;28;20047;-79
2022/10/20 02:58:56;;;;;;;1.40;1.30;;;;;;;21.98;49.81;101250.00;21055387;27;20052;-80
2022/10/20 03:08:57;;;;;;;2.03;1.70;;;;;;;21.97;49.91;101253.59;21061431;27;20059;-80
2022/10/20 03:18:57;;;;;;;2.10;1.60;;;;;;;21.95;49.92;101260.75;21059587;28;20040;-77
2022/10/20 03:28:57;;;;;;;1.85;1.50;;;;;;;21.93;50.10;101257.38;21067610;27;20036;-79
2022/10/20 03:38:58;;;;;;;3.25;1.67;;;;;;;21.90;49.95;101258.44;21062362;27;20040;-78
2022/10/20 03:48:58;;;;;;;1.98;1.50;;;;;;;21.88;49.97;101258.53;21067777;27;20063;-77
2022/10/20 03:58:58;;;;;;;3.65;1.77;;;;;;;21.94;50.21;101270.47;21066973;27;20043;-79
2022/10/20 04:08:59;;;;;;;4.75;1.80;;;;;;;21.99;50.87;101273.63;21072237;27;20044;-76
2022/10/20 04:19:00;;;;;;;2.65;1.85;;;;;;;22.04;51.56;101263.59;21064317;27;20067;-79
2022/10/20 04:29:01;;;;;;;19.77;4.20;;;;;;;22.06;51.72;101267.00;21057346;27;20055;-74
2022/10/20 04:39:05;;;;;;;29.23;5.10;;;;;;;22.10;52.24;101262.38;21063915;27;20287;-76
2022/10/20 04:49:05;;;;;;;31.35;6.45;;;;;;;22.10;52.14;101264.16;21063412;27;20042;-74
2022/10/20 04:59:06;;;;;;;24.20;5.80;;;;;;;22.06;49.70;101271.44;21063358;27;20111;-77
2022/10/20 05:09:06;;;;;;;16.98;6.22;;;;;;;22.01;49.91;101278.81;21074014;27;20355;-75
2022/10/20 05:19:07;;;;;;;26.60;6.72;;;;;;;21.98;50.65;101300.94;21076909;27;20043;-75
2022/10/20 05:29:10;;;;;;;16.02;5.43;;;;;;;21.91;49.41;101304.97;21053760;27;20405;-77
2022/10/20 05:39:10;;;;;;;13.10;5.10;;;;;;;21.91;50.73;101326.88;21059367;27;21106;-75
2022/10/20 05:49:15;;;;;;;23.85;5.47;;;;;;;21.87;50.06;101335.97;21063054;27;20097;-76
2022/10/20 05:59:15;;;;;;;17.58;5.32;;;;;;;21.89;50.82;101349.03;21061613;27;20040;-75
2022/10/20 06:09:18;;;;;;;14.15;4.95;;;;;;;21.90;51.00;101361.28;21049049;27;20051;-75
2022/10/20 06:19:18;;;;;;;13.50;5.00;;;;;;;21.90;50.74;101372.66;21066023;27;20063;-77
2022/10/20 06:29:19;;;;;;;11.05;3.95;;;;;;;21.92;50.86;101383.09;21086197;27;20459;-75
2022/10/20 06:39:21;;;;;;;12.10;4.55;;;;;;;21.94;50.77;101398.84;21057029;27;20060;-75
2022/10/20 06:49:22;;;;;;;12.02;4.43;;;;;;;21.91;50.51;101399.88;21060723;27;20039;-76
2022/10/20 06:59:22;;;;;;;10.15;3.80;;;;;;;21.95;50.95;101408.41;21053374;27;20479;-75
2022/10/20 07:09:23;;;;;;;11.77;3.60;;;;;;;21.91;50.54;101413.91;21060416;27;20162;-75
2022/10/20 07:19:23;;;;;;;8.32;4.40;;;;;;;21.91;50.43;101429.72;21066650;27;20052;-75
2022/10/20 07:29:24;;;;;;;8.02;3.88;;;;;;;21.91;50.48;101423.63;21062263;28;20039;-75
2022/10/20 07:39:24;;;;;;;8.20;4.43;;;;;;;21.92;50.13;101420.00;21074329;27;20040;-75
2022/10/20 07:49:25;;;;;;;8.57;4.35;;;;;;;21.87;49.82;101425.59;21067506;27;20040;-76
2022/10/20 07:59:25;;;;;;;6.63;4.05;;;;;;;21.93;50.15;101423.50;21070656;27;20040;-75
2022/10/20 08:09:26;;;;;;;10.95;4.93;;;;;;;21.95;51.08;101426.88;21077887;27;20060;-75
2022/10/20 08:19:27;;;;;;;10.10;5.35;;;;;;;21.98;50.82;101437.25;21083150;27;20048;-75
2022/10/20 08:29:27;;;;;;;8.73;4.95;;;;;;;21.98;50.40;101435.44;21078029;27;20032;-75
2022/10/20 08:39:28;;;;;;;8.57;5.83;;;;;;;22.01;51.06;101434.44;21076559;27;20051;-75
2022/10/20 08:49:31;;;;;;;11.00;6.00;;;;;;;22.07;50.59;101436.66;21067600;27;20853;-75
2022/10/20 08:59:36;;;;;;;9.40;5.53;;;;;;;22.10;50.60;101443.53;21075340;27;20048;-75
2022/10/20 09:09:37;;;;;;;15.23;6.20;;;;;;;22.14;50.81;101440.59;21067984;27;20528;-76
2022/10/20 09:19:38;;;;;;;11.15;6.10;;;;;;;22.17;51.03;101453.56;21070231;27;20078;-76
2022/10/20 09:29:39;;;;;;;12.90;5.70;;;;;;;22.19;50.31;101443.78;21069394;27;20036;-76
2022/10/20 09:39:45;;;;;;;15.20;5.65;;;;;;;22.29;50.73;101448.44;21052036;27;20047;-76
2022/10/20 09:49:50;;;;;;;10.95;5.95;;;;;;;22.34;50.69;101441.91;21067673;27;20048;-76
2022/10/20 09:59:52;;;;;;;9.55;5.45;;;;;;;22.32;45.05;101435.88;21078599;27;20641;-76
2022/10/20 10:10:02;;;;;;;10.05;4.57;;;;;;;22.27;45.00;101434.53;21094445;27;20040;-76
2022/10/20 10:20:06;;;;;;;7.50;4.32;;;;;;;22.32;45.92;101419.22;21092009;27;20513;-77
2022/10/20 10:30:16;;;;;;;7.68;3.90;;;;;;;22.38;44.99;101408.28;21068536;27;20596;-76
2022/10/20 10:40:19;;;;;;;6.32;3.65;;;;;;;22.45;44.98;101408.72;21079023;27;20044;-76
2022/10/20 10:50:26;;;;;;;5.47;3.40;;;;;;;22.50;44.23;101391.63;21087827;27;20367;-77
2022/10/20 11:01:05;;;;;;;7.00;3.13;;;;;;;22.54;44.19;101382.59;21069703;27;20048;-75
2022/10/20 11:11:10;;;;;;;5.90;2.88;;;;;;;22.51;43.49;101364.28;21045605;28;20052;-75
2022/10/20 11:21:55;;;;;;;4.93;2.70;;;;;;;22.52;42.06;101349.28;21096906;27;20047;-75
2022/10/20 11:32:06;;;;;;;10.82;3.92;;;;;;;22.63;47.14;101345.94;21077944;28;20043;-76
2022/10/20 11:42:28;;;;;;;7.07;4.28;;;;;;;22.82;50.71;101319.94;21074673;27;20086;-76
2022/10/20 11:52:34;;;;;;;;;;;;;;;22.89;50.04;101304.53;21056565;27;20051;-75
2022/10/20 12:02:54;;;;;;;5.90;3.53;;;;;;;23.00;49.93;101298.50;21070432;28;19931;-74
2022/10/20 12:13:03;;;;;;;6.75;3.22;;;;;;;23.12;49.60;101296.75;21053039;28;20439;-75
2022/10/20 12:23:41;;;;;;;7.80;3.40;;;;;;;23.18;49.44;101288.44;21064391;27;20490;-75
2022/10/20 12:33:48;;;;;;;6.38;3.33;;;;;;;23.29;49.01;101277.94;21078685;27;20040;-76
2022/10/20 12:43:53;;;;;;;4.68;3.72;;;;;;;23.25;49.09;101265.06;21076203;27;20149;-76
2022/10/20 12:53:59;;;;;;;6.15;4.18;;;;;;;23.34;48.94;101253.81;21060510;27;20048;-76
2022/10/20 13:04:00;;;;;;;7.25;4.03;;;;;;;23.41;48.81;101244.50;21069354;27;20048;-78
2022/10/20 13:14:23;;;;;;;14.38;5.68;;;;;;;23.52;49.15;101242.84;21069488;27;20584;-77
2022/10/20 13:24:29;;;;;;;20.02;6.93;;;;;;;23.59;49.03;101234.34;21067647;27;20035;-77
2022/10/20 13:34:39;;;;;;;21.02;7.88;;;;;;;23.64;49.12;101228.72;21059087;27;20505;-76
2022/10/20 13:44:58;;;;;;;22.05;8.40;;;;;;;23.67;48.90;101226.69;21064465;27;20040;-76
2022/10/20 13:55:00;;;;;;;16.17;6.40;;;;;;;23.62;46.30;101231.47;21064004;27;20040;-77
2022/10/20 14:05:11;;;;;;;15.70;5.53;;;;;;;23.57;44.50;101220.41;21078538;27;20093;-76
2022/10/20 14:15:19;;;;;;;8.60;4.00;;;;;;;23.51;41.85;101215.56;21076709;27;20044;-77
2022/10/20 14:25:21;;;;;;;10.40;4.20;;;;;;;23.47;42.89;101211.47;21064825;27;20486;-76
2022/10/20 14:35:38;;;;;;;7.07;3.33;;;;;;;23.31;38.93;101211.75;21082257;27;20028;-77
2022/10/20 14:45:38;;;;;;;12.18;3.50;;;;;;;23.19;38.07;101208.19;21066582;27;20047;-75
2022/10/20 14:55:38;;;;;;;6.28;2.40;;;;;;;23.03;38.49;101198.75;21059025;27;20040;-76
2022/10/20 15:05:43;;;;;;;9.70;2.72;;;;;;;22.79;38.59;101195.19;21066376;27;20035;-74
2022/10/20 15:15:43;;;;;;;8.00;2.60;;;;;;;22.86;41.45;101185.88;21056964;27;20048;-75
2022/10/20 15:25:43;;;;;;;6.63;2.97;;;;;;;22.86;43.66;101180.59;21056917;27;20050;-76
2022/10/20 15:35:46;;;;;;;5.97;2.90;;;;;;;22.86;45.65;101170.03;21068468;28;20375;-77
2022/10/20 15:45:52;;;;;;;9.55;2.95;;;;;;;22.79;46.50;101176.72;21062401;27;20453;-76
2022/10/20 15:55:53;;;;;;;11.13;3.40;;;;;;;22.76;46.60;101169.03;21065631;27;20044;-77
2022/10/20 16:05:54;;;;;;;6.05;3.17;;;;;;;22.74;46.98;101165.66;21069141;27;20369;-79
2022/10/20 16:15:55;;;;;;;8.38;3.65;;;;;;;22.75;47.92;101175.28;21072837;27;20502;-78
2022/10/20 16:25:55;;;;;;;5.82;3.40;;;;;;;22.73;48.05;101185.09;21095320;27;20032;-81
2022/10/20 16:35:55;;;;;;;7.40;3.70;;;;;;;22.72;48.33;101176.34;21074379;27;20050;-79
2022/10/20 16:45:56;;;;;;;9.30;3.60;;;;;;;22.70;48.68;101192.28;21085897;27;20150;-80
2022/10/20 16:55:57;;;;;;;12.13;3.40;;;;;;;22.68;48.85;101194.19;21072083;27;20134;-77
2022/10/20 17:06:00;;;;;;;6.47;3.30;;;;;;;22.70;49.28;101184.38;21065085;27;20559;-77
2022/10/20 17:16:07;;;;;;;9.75;3.67;;;;;;;22.68;49.14;101185.44;21059417;27;20035;-77
2022/10/20 17:26:10;;;;;;;10.38;3.47;;;;;;;22.67;49.33;101184.56;21053209;27;20051;-78
2022/10/20 17:36:11;;;;;;;31.85;10.95;;;;;;;22.66;49.58;101195.25;21047986;27;20059;-76
2022/10/20 17:46:13;;;;;;;23.67;9.23;;;;;;;22.66;49.97;101182.06;21028241;27;20046;-78
2022/10/20 17:56:19;;;;;;;18.55;8.57;;;;;;;22.63;49.88;101201.59;21050455;27;20045;-77
2022/10/20 18:06:22;;;;;;;19.02;7.55;;;;;;;22.63;50.13;101203.38;21055297;27;20052;-77
2022/10/20 18:16:22;;;;;;;17.55;7.00;;;;;;;22.63;50.48;101192.81;21051936;27;21883;-77
2022/10/20 18:26:24;;;;;;;17.08;7.47;;;;;;;22.61;50.07;101192.94;21059674;27;20063;-77
2022/10/20 18:36:27;;;;;;;16.63;7.15;;;;;;;22.61;49.77;101200.03;21053717;27;20152;-77
2022/10/20 18:46:30;;;;;;;15.82;7.00;;;;;;;22.57;50.03;101193.25;21049380;27;20099;-80
2022/10/20 18:56:31;;;;;;;20.40;7.35;;;;;;;22.51;50.20;101187.47;21036330;27;20040;-77
2022/10/20 19:06:35;;;;;;;16.00;7.00;;;;;;;22.49;50.45;101178.81;21037067;27;20051;-75
2022/10/20 19:16:37;;;;;;;18.73;7.05;;;;;;;22.47;49.98;101187.78;21052426;27;20039;-76
2022/10/20 19:26:45;;;;;;;22.63;6.90;;;;;;;22.44;50.14;101194.13;21074132;27;20123;-82
2022/10/20 19:36:47;;;;;;;16.05;7.65;;;;;;;22.41;49.97;101191.72;21084192;27;20043;-79
2022/10/20 19:46:52;;;;;;;17.90;7.50;;;;;;;22.38;49.96;101187.47;21082299;27;20035;-79
2022/10/20 19:56:54;;;;;;;16.70;7.47;;;;;;;22.34;50.33;101199.16;21088719;27;20044;-79
2022/10/20 20:06:54;;;;;;;16.85;6.97;;;;;;;22.33;50.80;101194.00;21076205;27;20036;-79
2022/10/20 20:16:55;;;;;;;15.48;6.95;;;;;;;22.30;51.18;101199.47;21085857;27;20108;-80
2022/10/20 20:26:55;;;;;;;12.63;6.85;;;;;;;22.29;51.10;101197.78;21083731;27;20574;-79
2022/10/20 20:36:57;;;;;;;12.32;6.70;;;;;;;22.27;51.33;101205.81;21079643;27;20047;-80
2022/10/20 20:46:57;;;;;;;13.50;6.65;;;;;;;22.25;51.05;101194.50;21088530;27;20040;-81
2022/10/20 20:56:57;;;;;;;12.75;6.25;;;;;;;22.22;50.92;101192.09;21081289;27;21146;-79
2022/10/20 21:06:59;;;;;;;11.18;6.47;;;;;;;22.24;51.10;101198.13;21084240;27;20048;-78
2022/10/20 21:16:59;;;;;;;10.38;5.97;;;;;;;22.23;51.12;101194.63;21071194;27;20051;-80
2022/10/20 21:27:00;;;;;;;11.35;5.90;;;;;;;22.19;51.05;101192.31;21069358;27;20482;-78
2022/10/20 21:37:00;;;;;;;12.55;6.13;;;;;;;22.22;51.09;101186.84;21072591;27;20040;-79
2022/10/20 21:47:01;;;;;;;12.88;5.97;;;;;;;22.23;50.86;101192.00;21071949;27;20033;-78
2022/10/20 21:57:01;;;;;;;11.38;6.20;;;;;;;22.23;51.06;101185.88;21058027;27;20040;-79
2022/10/20 22:07:01;;;;;;;10.90;5.15;;;;;;;22.21;51.15;101196.53;21065960;27;20127;-78
2022/10/20 22:17:02;;;;;;;9.32;5.65;;;;;;;22.18;51.09;101180.94;21072672;27;20063;-78
2022/10/20 22:27:03;;;;;;;10.38;5.47;;;;;;;22.17;50.89;101188.94;21073302;27;20043;-78
2022/10/20 22:37:03;;;;;;;9.57;5.38;;;;;;;22.15;51.16;101202.22;21069730;27;20043;-79
2022/10/20 22:47:03;;;;;;;7.15;5.28;;;;;;;22.13;50.90;101198.88;21074553;27;20067;-79
2022/10/20 22:57:05;;;;;;;10.13;5.15;;;;;;;22.10;50.63;101190.31;21067863;27;20135;-80
2022/10/20 23:07:11;;;;;;;7.93;4.60;;;;;;;22.11;50.59;101192.84;21059186;27;21092;-80
2022/10/20 23:17:12;;;;;;;7.45;4.80;;;;;;;22.10;50.74;101174.50;21066816;27;20055;-80
2022/10/20 23:27:12;;;;;;;12.43;5.07;;;;;;;22.11;50.65;101174.38;21063250;27;20047;-79
2022/10/20 23:37:12;;;;;;;8.43;4.80;;;;;;;22.07;50.94;101176.38;21060302;28;20041;-80
2022/10/20 23:47:13;;;;;;;7.10;5.00;;;;;;;22.03;50.62;101177.56;21059331;28;20054;-80
2022/10/20 23:57:13;;;;;;;8.27;5.00;;;;;;;22.01;50.64;101168.06;21060669;28;20040;-80
